This is the latest recevied weather packets stored in our database for station/object DC4THF-13. If no packets are shown the sender has not sent any weather packets the latest 10 day(s).
| Time | Temp. | Humidity | Pressure | Rain* | Wind** | Luminosity | Snow |
|---|---|---|---|---|---|---|---|
| 1777638768 | 25.56° C | 21% | 1021.1 hPa | 0 mm | - | - | - |
| 1777638165 | 25° C | 21% | 1021.2 hPa | 0 mm | - | - | - |
| 1777637562 | 25° C | 22% | 1021.3 hPa | 0 mm | - | - | - |
| 1777636958 | 24.44° C | 22% | 1021.4 hPa | 0 mm | - | - | - |
| 1777636355 | 25° C | 22% | 1021.5 hPa | 0 mm | - | - | - |
| 1777635752 | 24.44° C | 23% | 1021.6 hPa | 0 mm | - | - | - |
| 1777635149 | 23.89° C | 22% | 1021.6 hPa | 0 mm | - | - | - |
| 1777634546 | 24.44° C | 21% | 1021.9 hPa | 0 mm | - | - | - |
| 1777633942 | 23.89° C | 23% | 1022 hPa | 0 mm | - | - | - |
| 1777633339 | 23.33° C | 23% | 1022.3 hPa | 0 mm | - | - | - |
| 1777632736 | 23.33° C | 24% | 1022.5 hPa | 0 mm | - | - | - |
| 1777632192 | 22.22° C | 28% | 1022.6 hPa | 0 mm | - | - | - |
| 1777631588 | 22.78° C | 25% | 1022.8 hPa | 0 mm | - | - | - |
| 1777630984 | 22.22° C | 28% | 1022.9 hPa | 0 mm | - | - | - |
| 1777630381 | 22.78° C | 27% | 1023 hPa | 0 mm | - | - | - |
| 1777629777 | 22.78° C | 28% | 1023 hPa | 0 mm | - | - | - |
| 1777629174 | 21.67° C | 30% | 1023.2 hPa | 0 mm | - | - | - |
| 1777628570 | 22.22° C | 30% | 1023.3 hPa | 0 mm | - | - | - |
| 1777627967 | 22.22° C | 30% | 1023.4 hPa | 0 mm | - | - | - |
| 1777627363 | 22.22° C | 30% | 1023.7 hPa | 0 mm | - | - | - |
| 1777626760 | 21.67° C | 30% | 1023.8 hPa | 0 mm | - | - | - |
| 1777626157 | 21.67° C | 30% | 1024 hPa | 0 mm | - | - | - |
| 1777625554 | 21.67° C | 31% | 1023.9 hPa | 0 mm | - | - | - |
| 1777624950 | 20.56° C | 30% | 1024.1 hPa | 0 mm | - | - | - |
| 1777624347 | 20.56° C | 30% | 1024.1 hPa | 0 mm | - | - | - |
* Rain latest hour (hover to see other rain measurements)
** Current wind speed in m/s (hover to see current wind gust speed)